sensor_id;sensor_type;location;lat;lon;timestamp;pressure;altitude;pressure_sealevel;temperature;humidity
48778;BME280;34578;0.000;0.000;2023-12-07T00:03:31;96911.78;;;17.36;51.67
48778;BME280;34578;0.000;0.000;2023-12-07T00:08:31;96912.63;;;17.37;50.21
48778;BME280;34578;0.000;0.000;2023-12-07T00:13:32;96904.19;;;17.38;52.06
48778;BME280;34578;0.000;0.000;2023-12-07T00:18:32;96900.78;;;17.36;52.23
48778;BME280;34578;0.000;0.000;2023-12-07T00:23:33;96902.50;;;17.38;50.90
48778;BME280;34578;0.000;0.000;2023-12-07T00:28:33;96903.34;;;17.39;50.40
48778;BME280;34578;0.000;0.000;2023-12-07T00:33:34;96908.41;;;17.39;51.39
48778;BME280;34578;0.000;0.000;2023-12-07T00:38:34;96907.59;;;17.40;51.84
48778;BME280;34578;0.000;0.000;2023-12-07T00:43:34;96920.22;;;17.38;51.09
48778;BME280;34578;0.000;0.000;2023-12-07T00:48:35;96907.59;;;17.40;50.90
48778;BME280;34578;0.000;0.000;2023-12-07T00:53:35;96907.59;;;17.40;50.70
48778;BME280;34578;0.000;0.000;2023-12-07T00:58:35;96909.19;;;17.35;50.86
48778;BME280;34578;0.000;0.000;2023-12-07T01:03:36;96927.84;;;17.41;50.91
48778;BME280;34578;0.000;0.000;2023-12-07T01:08:39;96907.59;;;17.40;51.02
48778;BME280;34578;0.000;0.000;2023-12-07T01:13:39;96917.69;;;17.38;51.34
48778;BME280;34578;0.000;0.000;2023-12-07T01:18:40;96925.31;;;17.40;50.78
48778;BME280;34578;0.000;0.000;2023-12-07T01:23:40;96933.72;;;17.39;51.32
48778;BME280;34578;0.000;0.000;2023-12-07T01:28:40;96933.69;;;17.36;51.50
48778;BME280;34578;0.000;0.000;2023-12-07T01:33:41;96937.91;;;17.37;51.18
48778;BME280;34578;0.000;0.000;2023-12-07T01:38:42;96932.84;;;17.37;50.80
48778;BME280;34578;0.000;0.000;2023-12-07T01:43:47;96937.91;;;17.37;51.13
48778;BME280;34578;0.000;0.000;2023-12-07T01:48:47;96932.84;;;17.37;51.51
48778;BME280;34578;0.000;0.000;2023-12-07T01:53:50;96924.44;;;17.36;51.03
48778;BME280;34578;0.000;0.000;2023-12-07T01:58:51;96926.13;;;17.37;51.21
48778;BME280;34578;0.000;0.000;2023-12-07T02:03:52;96922.75;;;17.37;51.34
48778;BME280;34578;0.000;0.000;2023-12-07T02:08:52;96927.78;;;17.37;50.99
48778;BME280;34578;0.000;0.000;2023-12-07T02:13:55;96927.78;;;17.37;51.17
48778;BME280;34578;0.000;0.000;2023-12-07T02:24:23;96933.72;;;17.37;50.68
48778;BME280;34578;0.000;0.000;2023-12-07T02:29:25;96936.25;;;17.37;50.76
48778;BME280;34578;0.000;0.000;2023-12-07T02:34:26;96937.88;;;17.34;51.14
48778;BME280;34578;0.000;0.000;2023-12-07T02:39:26;96939.56;;;17.35;51.05
48778;BME280;34578;0.000;0.000;2023-12-07T02:44:27;96944.63;;;17.35;51.39
48778;BME280;34578;0.000;0.000;2023-12-07T02:49:27;96955.59;;;17.34;50.54
48778;BME280;34578;0.000;0.000;2023-12-07T02:54:27;96951.41;;;17.36;51.08
48778;BME280;34578;0.000;0.000;2023-12-07T02:59:28;96941.28;;;17.36;50.79
48778;BME280;34578;0.000;0.000;2023-12-07T03:04:28;96953.94;;;17.36;51.21
48778;BME280;34578;0.000;0.000;2023-12-07T03:09:29;96949.69;;;17.35;50.86
48778;BME280;34578;0.000;0.000;2023-12-07T03:14:29;96942.94;;;17.34;51.00
48778;BME280;34578;0.000;0.000;2023-12-07T03:19:29;96925.16;;;17.25;51.19
48778;BME280;34578;0.000;0.000;2023-12-07T03:24:30;96929.44;;;17.32;51.09
48778;BME280;34578;0.000;0.000;2023-12-07T03:29:31;96930.28;;;17.34;50.89
48778;BME280;34578;0.000;0.000;2023-12-07T03:34:32;96923.47;;;17.27;51.17
48778;BME280;34578;0.000;0.000;2023-12-07T03:39:32;96933.69;;;17.36;51.25
48778;BME280;34578;0.000;0.000;2023-12-07T03:44:32;96936.22;;;17.36;50.88
48778;BME280;34578;0.000;0.000;2023-12-07T03:49:33;96931.16;;;17.36;50.77
48778;BME280;34578;0.000;0.000;2023-12-07T03:54:36;96920.03;;;17.22;51.72
48778;BME280;34578;0.000;0.000;2023-12-07T03:59:37;96941.28;;;17.36;51.40
48778;BME280;34578;0.000;0.000;2023-12-07T04:04:37;96948.81;;;17.34;51.81
48778;BME280;34578;0.000;0.000;2023-12-07T04:09:38;96945.47;;;17.34;51.19
48778;BME280;34578;0.000;0.000;2023-12-07T04:14:39;96933.63;;;17.31;51.59
48778;BME280;34578;0.000;0.000;2023-12-07T04:19:39;96937.03;;;17.32;51.33
48778;BME280;34578;0.000;0.000;2023-12-07T04:24:39;96942.91;;;17.32;51.42
48778;BME280;34578;0.000;0.000;2023-12-07T04:29:40;96935.34;;;17.31;51.39
48778;BME280;34578;0.000;0.000;2023-12-07T04:34:40;96935.31;;;17.32;51.55
48778;BME280;34578;0.000;0.000;2023-12-07T04:39:40;96936.19;;;17.33;51.37
48778;BME280;34578;0.000;0.000;2023-12-07T04:44:41;96935.28;;;17.28;51.04
48778;BME280;34578;0.000;0.000;2023-12-07T04:49:41;96935.34;;;17.34;50.20
48778;BME280;34578;0.000;0.000;2023-12-07T04:54:42;96926.09;;;17.36;48.66
48778;BME280;34578;0.000;0.000;2023-12-07T04:59:42;96921.00;;;17.34;48.85
48778;BME280;34578;0.000;0.000;2023-12-07T05:04:46;96930.31;;;17.35;48.48
48778;BME280;34578;0.000;0.000;2023-12-07T05:09:47;96931.97;;;17.35;48.14
48778;BME280;34578;0.000;0.000;2023-12-07T05:14:47;96929.50;;;17.36;46.96
48778;BME280;34578;0.000;0.000;2023-12-07T05:19:47;96919.38;;;17.38;46.79
48778;BME280;34578;0.000;0.000;2023-12-07T05:24:48;96921.03;;;17.36;46.74
48778;BME280;34578;0.000;0.000;2023-12-07T05:29:48;96924.38;;;17.35;46.28
48778;BME280;34578;0.000;0.000;2023-12-07T05:34:49;96926.13;;;17.39;45.69
48778;BME280;34578;0.000;0.000;2023-12-07T05:39:50;96919.38;;;17.36;45.61
48778;BME280;34578;0.000;0.000;2023-12-07T05:44:51;96924.34;;;17.33;45.66
48778;BME280;34578;0.000;0.000;2023-12-07T05:49:51;96937.91;;;17.37;44.89
48778;BME280;34578;0.000;0.000;2023-12-07T05:54:51;96932.91;;;17.40;44.65
48778;BME280;34578;0.000;0.000;2023-12-07T05:59:52;96926.97;;;17.38;45.01
48778;BME280;34578;0.000;0.000;2023-12-07T06:04:53;96924.44;;;17.39;44.75
48778;BME280;34578;0.000;0.000;2023-12-07T06:09:53;96930.34;;;17.38;45.44
48778;BME280;34578;0.000;0.000;2023-12-07T06:14:53;96934.56;;;17.38;44.57
48778;BME280;34578;0.000;0.000;2023-12-07T06:19:55;96939.59;;;17.38;44.28
48778;BME280;34578;0.000;0.000;2023-12-07T06:24:55;96939.56;;;17.35;43.62
48778;BME280;34578;0.000;0.000;2023-12-07T06:29:57;96943.56;;;17.09;44.07
48778;BME280;34578;0.000;0.000;2023-12-07T06:34:58;96920.63;;;16.91;42.83
48778;BME280;34578;0.000;0.000;2023-12-07T06:39:58;96938.09;;;16.67;41.66
48778;BME280;34578;0.000;0.000;2023-12-07T06:45:02;96924.03;;;16.93;41.94
48778;BME280;34578;0.000;0.000;2023-12-07T06:50:03;96931.72;;;17.03;42.54
48778;BME280;34578;0.000;0.000;2023-12-07T06:55:04;96922.47;;;17.07;43.39
48778;BME280;34578;0.000;0.000;2023-12-07T07:00:08;96919.94;;;17.08;43.00
48778;BME280;34578;0.000;0.000;2023-12-07T07:05:10;96909.00;;;17.11;43.57
48778;BME280;34578;0.000;0.000;2023-12-07T07:10:11;96910.69;;;17.09;43.54
48778;BME280;34578;0.000;0.000;2023-12-07T07:15:12;96901.38;;;17.09;43.73
48778;BME280;34578;0.000;0.000;2023-12-07T07:20:13;96893.75;;;17.05;43.18
48778;BME280;34578;0.000;0.000;2023-12-07T07:25:13;96894.59;;;17.01;43.14
48778;BME280;34578;0.000;0.000;2023-12-07T07:30:16;96906.47;;;17.08;42.88
48778;BME280;34578;0.000;0.000;2023-12-07T07:35:16;96900.56;;;17.09;42.72
48778;BME280;34578;0.000;0.000;2023-12-07T07:40:16;96903.94;;;17.08;42.92
48778;BME280;34578;0.000;0.000;2023-12-07T07:45:17;96901.34;;;17.05;43.07
48778;BME280;34578;0.000;0.000;2023-12-07T07:50:17;96897.19;;;17.07;42.99
48778;BME280;34578;0.000;0.000;2023-12-07T07:55:17;96875.22;;;17.04;42.83
48778;BME280;34578;0.000;0.000;2023-12-07T08:00:18;96882.00;;;17.07;42.27
48778;BME280;34578;0.000;0.000;2023-12-07T08:05:19;96871.88;;;17.05;42.88
48778;BME280;34578;0.000;0.000;2023-12-07T08:10:19;96884.53;;;17.07;42.42
48778;BME280;34578;0.000;0.000;2023-12-07T08:15:20;96912.34;;;17.07;42.41
48778;BME280;34578;0.000;0.000;2023-12-07T08:20:21;96910.66;;;17.06;42.73
48778;BME280;34578;0.000;0.000;2023-12-07T08:25:22;96908.13;;;17.06;42.26
48778;BME280;34578;0.000;0.000;2023-12-07T08:30:22;96899.69;;;17.05;42.36
48778;BME280;34578;0.000;0.000;2023-12-07T08:35:23;96893.75;;;17.05;42.04
48778;BME280;34578;0.000;0.000;2023-12-07T08:40:23;96891.22;;;17.05;42.11
48778;BME280;34578;0.000;0.000;2023-12-07T08:45:23;96898.00;;;17.04;42.33
48778;BME280;34578;0.000;0.000;2023-12-07T08:50:24;96899.66;;;17.04;42.05
48778;BME280;34578;0.000;0.000;2023-12-07T08:55:24;96896.28;;;17.02;41.85
48778;BME280;34578;0.000;0.000;2023-12-07T09:00:25;96891.22;;;17.05;42.22
48778;BME280;34578;0.000;0.000;2023-12-07T09:05:26;96880.28;;;17.03;41.99
48778;BME280;34578;0.000;0.000;2023-12-07T09:10:26;96876.91;;;17.04;41.81
48778;BME280;34578;0.000;0.000;2023-12-07T09:15:28;96875.22;;;17.04;42.39
48778;BME280;34578;0.000;0.000;2023-12-07T09:20:28;96876.06;;;17.05;41.40
48778;BME280;34578;0.000;0.000;2023-12-07T09:25:28;96876.88;;;17.01;41.11
48778;BME280;34578;0.000;0.000;2023-12-07T09:30:30;96872.69;;;17.01;41.79
48778;BME280;34578;0.000;0.000;2023-12-07T09:35:33;96877.75;;;17.03;41.98
48778;BME280;34578;0.000;0.000;2023-12-07T09:40:34;96882.78;;;17.03;41.35
48778;BME280;34578;0.000;0.000;2023-12-07T09:45:34;96865.94;;;17.02;41.17
48778;BME280;34578;0.000;0.000;2023-12-07T09:50:35;96857.50;;;17.00;41.51
48778;BME280;34578;0.000;0.000;2023-12-07T09:55:38;96835.56;;;17.02;41.45
48778;BME280;34578;0.000;0.000;2023-12-07T10:00:39;96839.81;;;17.01;41.27
48778;BME280;34578;0.000;0.000;2023-12-07T10:05:56;96830.53;;;17.02;41.16
48778;BME280;34578;0.000;0.000;2023-12-07T10:11:05;96838.94;;;17.01;41.03
48778;BME280;34578;0.000;0.000;2023-12-07T10:21:09;96822.94;;;17.02;41.01
48778;BME280;34578;0.000;0.000;2023-12-07T10:26:10;96822.94;;;17.02;41.00
48778;BME280;34578;0.000;0.000;2023-12-07T10:31:11;96817.03;;;17.03;40.73
48778;BME280;34578;0.000;0.000;2023-12-07T10:36:11;96806.09;;;17.02;41.08
48778;BME280;34578;0.000;0.000;2023-12-07T10:41:12;96806.91;;;17.03;40.97
48778;BME280;34578;0.000;0.000;2023-12-07T10:46:14;96792.59;;;17.02;40.87
48778;BME280;34578;0.000;0.000;2023-12-07T10:51:38;96777.38;;;17.00;40.79
48778;BME280;34578;0.000;0.000;2023-12-07T10:56:44;96772.34;;;16.99;40.98
48778;BME280;34578;0.000;0.000;2023-12-07T11:01:45;96762.22;;;16.99;40.74
48778;BME280;34578;0.000;0.000;2023-12-07T11:06:49;96755.47;;;16.98;40.70
48778;BME280;34578;0.000;0.000;2023-12-07T11:12:01;96738.59;;;16.97;40.85
48778;BME280;34578;0.000;0.000;2023-12-07T11:17:03;96722.59;;;16.98;41.02
48778;BME280;34578;0.000;0.000;2023-12-07T11:22:06;96693.94;;;17.05;40.91
48778;BME280;34578;0.000;0.000;2023-12-07T11:27:07;96683.00;;;17.03;40.91
48778;BME280;34578;0.000;0.000;2023-12-07T11:32:07;96682.19;;;17.10;41.48
48778;BME280;34578;0.000;0.000;2023-12-07T11:37:15;96664.50;;;17.16;41.16
48778;BME280;34578;0.000;0.000;2023-12-07T11:42:18;96655.97;;;16.96;41.06
48778;BME280;34578;0.000;0.000;2023-12-07T11:47:20;96635.81;;;17.08;41.93
48778;BME280;34578;0.000;0.000;2023-12-07T11:52:21;96627.38;;;17.06;41.07
48778;BME280;34578;0.000;0.000;2023-12-07T11:57:21;96628.22;;;17.06;40.50
48778;BME280;34578;0.000;0.000;2023-12-07T12:02:22;96618.97;;;17.11;40.66
48778;BME280;34578;0.000;0.000;2023-12-07T12:07:23;96615.59;;;17.17;40.39
48778;BME280;34578;0.000;0.000;2023-12-07T12:12:25;96608.84;;;17.19;40.69
48778;BME280;34578;0.000;0.000;2023-12-07T12:17:25;96605.53;;;17.23;41.29
48778;BME280;34578;0.000;0.000;2023-12-07T12:22:26;96620.69;;;17.26;41.30
48778;BME280;34578;0.000;0.000;2023-12-07T12:27:26;96614.81;;;17.31;41.78
48778;BME280;34578;0.000;0.000;2023-12-07T12:32:27;96618.19;;;17.35;41.99
48778;BME280;34578;0.000;0.000;2023-12-07T12:37:30;96605.47;;;17.11;42.59
48778;BME280;34578;0.000;0.000;2023-12-07T12:42:33;96625.75;;;17.26;44.55
48778;BME280;34578;0.000;0.000;2023-12-07T12:47:34;96631.66;;;17.26;45.02
48778;BME280;34578;0.000;0.000;2023-12-07T12:52:35;96628.31;;;17.32;43.37
48778;BME280;34578;0.000;0.000;2023-12-07T12:57:37;96635.03;;;17.31;44.47
48778;BME280;34578;0.000;0.000;2023-12-07T13:02:38;96631.69;;;17.31;44.86
48778;BME280;34578;0.000;0.000;2023-12-07T13:07:38;96622.38;;;17.27;45.02
48778;BME280;34578;0.000;0.000;2023-12-07T13:12:38;96619.03;;;17.29;45.35
48778;BME280;34578;0.000;0.000;2023-12-07T13:17:39;96629.16;;;17.31;45.47
48778;BME280;34578;0.000;0.000;2023-12-07T13:22:41;96612.25;;;17.30;45.69
48778;BME280;34578;0.000;0.000;2023-12-07T13:27:43;96584.44;;;17.28;44.80
48778;BME280;34578;0.000;0.000;2023-12-07T13:32:44;96579.34;;;17.25;45.24
48778;BME280;34578;0.000;0.000;2023-12-07T13:37:46;96573.44;;;17.26;44.41
48778;BME280;34578;0.000;0.000;2023-12-07T13:42:47;96578.56;;;17.31;44.09
48778;BME280;34578;0.000;0.000;2023-12-07T13:47:48;96565.88;;;17.28;45.10
48778;BME280;34578;0.000;0.000;2023-12-07T13:52:48;96553.22;;;17.28;44.80
48778;BME280;34578;0.000;0.000;2023-12-07T13:57:48;96538.03;;;17.28;45.72
48778;BME280;34578;0.000;0.000;2023-12-07T14:02:52;96512.75;;;17.28;45.73
48778;BME280;34578;0.000;0.000;2023-12-07T14:07:53;96520.34;;;17.29;44.78
48778;BME280;34578;0.000;0.000;2023-12-07T14:12:53;96495.88;;;17.28;45.03
48778;BME280;34578;0.000;0.000;2023-12-07T14:17:53;96490.84;;;17.33;44.61
48778;BME280;34578;0.000;0.000;2023-12-07T14:22:55;96473.97;;;17.27;43.78
48778;BME280;34578;0.000;0.000;2023-12-07T14:27:55;96460.47;;;17.27;44.33
48778;BME280;34578;0.000;0.000;2023-12-07T14:32:55;96462.97;;;17.34;43.43
48778;BME280;34578;0.000;0.000;2023-12-07T14:37:56;96455.44;;;17.36;45.02
48778;BME280;34578;0.000;0.000;2023-12-07T14:42:56;96457.94;;;17.39;44.79
48778;BME280;34578;0.000;0.000;2023-12-07T14:47:57;96448.69;;;17.41;44.48
48778;BME280;34578;0.000;0.000;2023-12-07T14:52:58;96442.78;;;17.40;45.31
48778;BME280;34578;0.000;0.000;2023-12-07T14:57:58;96441.09;;;17.38;45.53
48778;BME280;34578;0.000;0.000;2023-12-07T15:02:58;96441.97;;;17.40;44.09
48778;BME280;34578;0.000;0.000;2023-12-07T15:07:59;96441.09;;;17.41;44.29
48778;BME280;34578;0.000;0.000;2023-12-07T15:12:59;96448.69;;;17.44;44.94
48778;BME280;34578;0.000;0.000;2023-12-07T15:17:59;96452.06;;;17.46;43.92
48778;BME280;34578;0.000;0.000;2023-12-07T15:23:00;96427.59;;;17.42;43.86
48778;BME280;34578;0.000;0.000;2023-12-07T15:28:00;96426.75;;;17.52;43.49
48778;BME280;34578;0.000;0.000;2023-12-07T15:33:01;96411.56;;;17.52;44.11
48778;BME280;34578;0.000;0.000;2023-12-07T15:38:01;96392.16;;;17.45;45.29
48778;BME280;34578;0.000;0.000;2023-12-07T15:43:01;96403.13;;;17.50;44.94
48778;BME280;34578;0.000;0.000;2023-12-07T15:48:02;96405.66;;;17.38;44.45
48778;BME280;34578;0.000;0.000;2023-12-07T15:53:03;96393.00;;;17.48;45.08
48778;BME280;34578;0.000;0.000;2023-12-07T15:58:04;96386.25;;;17.52;44.00
48778;BME280;34578;0.000;0.000;2023-12-07T16:03:05;96392.16;;;17.54;44.27
48778;BME280;34578;0.000;0.000;2023-12-07T16:08:06;96384.56;;;17.57;44.50
48778;BME280;34578;0.000;0.000;2023-12-07T16:13:07;96372.78;;;17.41;44.47
48778;BME280;34578;0.000;0.000;2023-12-07T16:18:08;96371.91;;;17.45;44.80
48778;BME280;34578;0.000;0.000;2023-12-07T16:23:08;96347.47;;;17.41;44.09
48778;BME280;34578;0.000;0.000;2023-12-07T16:28:09;96339.03;;;17.45;43.89
48778;BME280;34578;0.000;0.000;2023-12-07T16:33:09;96332.28;;;17.42;43.78
48778;BME280;34578;0.000;0.000;2023-12-07T16:38:09;96329.75;;;17.44;43.98
48778;BME280;34578;0.000;0.000;2023-12-07T16:43:10;96327.19;;;17.47;43.52
48778;BME280;34578;0.000;0.000;2023-12-07T16:48:10;96311.19;;;17.45;43.57
48778;BME280;34578;0.000;0.000;2023-12-07T16:53:10;96300.22;;;17.46;43.52
48778;BME280;34578;0.000;0.000;2023-12-07T16:58:14;96290.09;;;17.43;42.38
48778;BME280;34578;0.000;0.000;2023-12-07T17:03:15;96288.44;;;17.42;43.36
48778;BME280;34578;0.000;0.000;2023-12-07T17:08:17;96283.38;;;17.42;43.31
48778;BME280;34578;0.000;0.000;2023-12-07T17:13:21;96274.06;;;17.42;43.67
48778;BME280;34578;0.000;0.000;2023-12-07T17:18:21;96271.56;;;17.41;42.85
48778;BME280;34578;0.000;0.000;2023-12-07T17:23:21;96258.91;;;17.39;42.35
48778;BME280;34578;0.000;0.000;2023-12-07T17:28:22;96259.75;;;17.43;41.63
48778;BME280;34578;0.000;0.000;2023-12-07T17:33:22;96258.03;;;17.45;42.36
48778;BME280;34578;0.000;0.000;2023-12-07T17:38:23;96269.00;;;17.44;43.05
48778;BME280;34578;0.000;0.000;2023-12-07T17:43:23;96258.03;;;17.45;42.50
48778;BME280;34578;0.000;0.000;2023-12-07T17:48:23;96256.38;;;17.39;42.20
48778;BME280;34578;0.000;0.000;2023-12-07T17:53:24;96269.00;;;17.50;42.71
48778;BME280;34578;0.000;0.000;2023-12-07T17:58:24;96281.63;;;17.53;42.07
48778;BME280;34578;0.000;0.000;2023-12-07T18:03:24;96276.56;;;17.53;42.05
48778;BME280;34578;0.000;0.000;2023-12-07T18:08:25;96269.84;;;17.49;43.40
48778;BME280;34578;0.000;0.000;2023-12-07T18:13:25;96263.09;;;17.30;43.77
48778;BME280;34578;0.000;0.000;2023-12-07T18:18:26;96279.97;;;17.41;44.28
48778;BME280;34578;0.000;0.000;2023-12-07T18:23:26;96286.72;;;17.44;44.58
48778;BME280;34578;0.000;0.000;2023-12-07T18:28:26;96274.94;;;17.43;43.79
48778;BME280;34578;0.000;0.000;2023-12-07T18:33:27;96265.66;;;17.42;43.99
48778;BME280;34578;0.000;0.000;2023-12-07T18:38:27;96258.06;;;17.39;44.76
48778;BME280;34578;0.000;0.000;2023-12-07T18:43:28;96272.38;;;17.41;42.54
48778;BME280;34578;0.000;0.000;2023-12-07T18:48:29;96296.88;;;17.41;44.26
48778;BME280;34578;0.000;0.000;2023-12-07T18:53:29;96318.78;;;17.48;43.22
48778;BME280;34578;0.000;0.000;2023-12-07T18:58:30;96316.22;;;17.49;43.03
48778;BME280;34578;0.000;0.000;2023-12-07T19:03:30;96328.06;;;17.47;43.72
48778;BME280;34578;0.000;0.000;2023-12-07T19:08:31;96312.84;;;17.50;43.01
48778;BME280;34578;0.000;0.000;2023-12-07T19:13:31;96291.75;;;17.53;43.86
48778;BME280;34578;0.000;0.000;2023-12-07T19:18:32;96274.91;;;17.52;44.58
48778;BME280;34578;0.000;0.000;2023-12-07T19:23:33;96256.31;;;17.53;43.77
48778;BME280;34578;0.000;0.000;2023-12-07T19:28:33;96258.84;;;17.51;46.21
48778;BME280;34578;0.000;0.000;2023-12-07T19:33:34;96251.28;;;17.50;45.67
48778;BME280;34578;0.000;0.000;2023-12-07T19:38:34;96231.03;;;17.50;45.99
48778;BME280;34578;0.000;0.000;2023-12-07T19:43:34;96238.66;;;17.45;44.89
48778;BME280;34578;0.000;0.000;2023-12-07T19:48:35;96206.59;;;17.46;44.10
48778;BME280;34578;0.000;0.000;2023-12-07T19:53:37;96201.53;;;17.43;44.79
48778;BME280;34578;0.000;0.000;2023-12-07T19:58:37;96200.66;;;17.47;45.81
48778;BME280;34578;0.000;0.000;2023-12-07T20:03:38;96184.66;;;17.39;44.22
48778;BME280;34578;0.000;0.000;2023-12-07T20:08:38;96184.69;;;17.40;45.37
48778;BME280;34578;0.000;0.000;2023-12-07T20:13:38;96179.63;;;17.40;46.50
48778;BME280;34578;0.000;0.000;2023-12-07T20:18:39;96167.00;;;17.37;44.59
48778;BME280;34578;0.000;0.000;2023-12-07T20:23:41;96164.44;;;17.40;44.69
48778;BME280;34578;0.000;0.000;2023-12-07T20:28:51;96151.78;;;17.43;46.84
48778;BME280;34578;0.000;0.000;2023-12-07T20:33:53;96134.91;;;17.44;46.92
48778;BME280;34578;0.000;0.000;2023-12-07T20:38:55;96135.75;;;17.44;47.54
48778;BME280;34578;0.000;0.000;2023-12-07T20:43:55;96130.69;;;17.44;46.63
48778;BME280;34578;0.000;0.000;2023-12-07T20:48:56;96123.97;;;17.43;47.15
48778;BME280;34578;0.000;0.000;2023-12-07T20:53:56;96112.97;;;17.43;46.67
48778;BME280;34578;0.000;0.000;2023-12-07T20:58:57;96112.97;;;17.43;47.75
48778;BME280;34578;0.000;0.000;2023-12-07T21:03:57;96093.59;;;17.42;47.79
48778;BME280;34578;0.000;0.000;2023-12-07T21:08:57;96087.69;;;17.43;46.49
48778;BME280;34578;0.000;0.000;2023-12-07T21:13:58;96077.56;;;17.43;46.44
48778;BME280;34578;0.000;0.000;2023-12-07T21:18:58;96069.09;;;17.44;46.78
48778;BME280;34578;0.000;0.000;2023-12-07T21:23:58;96048.03;;;17.43;45.16
48778;BME280;34578;0.000;0.000;2023-12-07T21:28:59;96053.94;;;17.44;45.92
48778;BME280;34578;0.000;0.000;2023-12-07T21:34:00;96042.97;;;17.43;45.75
48778;BME280;34578;0.000;0.000;2023-12-07T21:39:00;96037.91;;;17.43;46.28
48778;BME280;34578;0.000;0.000;2023-12-07T21:44:01;96005.03;;;17.42;45.27
48778;BME280;34578;0.000;0.000;2023-12-07T21:49:01;95977.19;;;17.42;45.98
48778;BME280;34578;0.000;0.000;2023-12-07T21:54:02;95962.88;;;17.41;47.03
48778;BME280;34578;0.000;0.000;2023-12-07T21:59:02;95951.94;;;17.36;45.83
48778;BME280;34578;0.000;0.000;2023-12-07T22:04:03;95965.38;;;17.42;49.93
48778;BME280;34578;0.000;0.000;2023-12-07T22:09:03;95956.13;;;17.40;48.95
48778;BME280;34578;0.000;0.000;2023-12-07T22:14:04;95938.44;;;17.34;50.26
48778;BME280;34578;0.000;0.000;2023-12-07T22:19:04;95939.25;;;17.39;50.14
48778;BME280;34578;0.000;0.000;2023-12-07T22:24:05;95936.72;;;17.39;48.28
48778;BME280;34578;0.000;0.000;2023-12-07T22:29:05;95929.13;;;17.39;49.15
48778;BME280;34578;0.000;0.000;2023-12-07T22:34:07;95940.13;;;17.36;45.81
48778;BME280;34578;0.000;0.000;2023-12-07T22:39:08;95956.97;;;17.40;45.87
48778;BME280;34578;0.000;0.000;2023-12-07T22:44:10;95968.78;;;17.40;45.70
48778;BME280;34578;0.000;0.000;2023-12-07T22:49:11;95978.06;;;17.39;45.51
48778;BME280;34578;0.000;0.000;2023-12-07T22:54:13;95971.31;;;17.40;45.40
48778;BME280;34578;0.000;0.000;2023-12-07T22:59:13;95960.34;;;17.39;45.04
48778;BME280;34578;0.000;0.000;2023-12-07T23:04:14;95945.16;;;17.39;45.44
48778;BME280;34578;0.000;0.000;2023-12-07T23:09:14;95932.50;;;17.38;46.59
48778;BME280;34578;0.000;0.000;2023-12-07T23:14:15;95923.25;;;17.37;46.11
48778;BME280;34578;0.000;0.000;2023-12-07T23:19:15;95912.28;;;17.35;46.05
48778;BME280;34578;0.000;0.000;2023-12-07T23:24:16;95899.63;;;17.33;46.36
48778;BME280;34578;0.000;0.000;2023-12-07T23:29:16;95895.44;;;17.34;46.23
48778;BME280;34578;0.000;0.000;2023-12-07T23:34:17;95885.31;;;17.34;46.40
48778;BME280;34578;0.000;0.000;2023-12-07T23:39:17;95879.44;;;17.32;45.73
48778;BME280;34578;0.000;0.000;2023-12-07T23:44:18;95871.84;;;17.32;45.76
48778;BME280;34578;0.000;0.000;2023-12-07T23:49:18;95876.03;;;17.31;46.34
48778;BME280;34578;0.000;0.000;2023-12-07T23:54:18;95879.44;;;17.30;46.47
48778;BME280;34578;0.000;0.000;2023-12-07T23:59:19;95882.81;;;17.31;46.12
